sensor_id;sensor_type;location;lat;lon;timestamp;pressure;altitude;pressure_sealevel;temperature;humidity
75938;BME280;64615;32.062;34.834;2023-02-28T10:55:24;101295.38;;;24.21;21.67
75938;BME280;64615;32.062;34.834;2023-02-28T10:58:23;101306.41;;;24.15;21.67
75938;BME280;64615;32.062;34.834;2023-02-28T11:01:24;101275.66;;;24.14;21.87
75938;BME280;64615;32.062;34.834;2023-02-28T11:07:21;101274.44;;;24.00;23.14
75938;BME280;64615;32.062;34.834;2023-02-28T11:10:20;101258.31;;;23.93;23.40
75938;BME280;64615;32.062;34.834;2023-02-28T11:13:17;101255.41;;;24.00;23.14
75938;BME280;64615;32.062;34.834;2023-02-28T11:16:11;101265.97;;;23.96;23.27
75938;BME280;64615;32.062;34.834;2023-02-28T11:19:05;101245.28;;;23.95;23.38
75938;BME280;64615;32.062;34.834;2023-02-28T11:22:00;101247.13;;;23.90;24.09
75938;BME280;64615;32.062;34.834;2023-02-28T11:24:53;101256.47;;;23.77;25.73
75938;BME280;64615;32.062;34.834;2023-02-28T11:27:51;101239.59;;;23.75;24.77
75938;BME280;64615;32.062;34.834;2023-02-28T11:30:43;101258.63;;;23.75;26.75
75938;BME280;64615;32.062;34.834;2023-02-28T11:33:52;101238.59;;;23.81;26.16
75938;BME280;64615;32.062;34.834;2023-02-28T11:36:43;101242.75;;;23.89;24.88
75938;BME280;64615;32.062;34.834;2023-02-28T11:39:34;101232.47;;;23.91;24.61
75938;BME280;64615;32.062;34.834;2023-02-28T11:43:19;101228.38;;;23.93;24.80
75938;BME280;64615;32.062;34.834;2023-02-28T11:49:23;101224.78;;;23.66;28.01
75938;BME280;64615;32.062;34.834;2023-02-28T13:12:35;101143.09;;;23.51;30.97
75938;BME280;64615;32.062;34.834;2023-02-28T13:15:27;101144.97;;;23.50;31.39
75938;BME280;64615;32.062;34.834;2023-02-28T13:18:34;101134.44;;;23.54;28.67
75938;BME280;64615;32.062;34.834;2023-02-28T13:21:29;101144.28;;;23.60;29.05
75938;BME280;64615;32.062;34.834;2023-02-28T13:24:56;101140.38;;;23.51;30.78
75938;BME280;64615;32.062;34.834;2023-02-28T13:27:48;101143.09;;;23.51;31.05
75938;BME280;64615;32.062;34.834;2023-02-28T13:36:46;101126.00;;;23.55;29.80
75938;BME280;64615;32.062;34.834;2023-02-28T13:45:24;101130.75;;;23.65;27.67
75938;BME280;64615;32.062;34.834;2023-02-28T13:48:19;101135.38;;;23.64;27.10
75938;BME280;64615;32.062;34.834;2023-02-28T13:52:33;101134.50;;;23.59;28.14
75938;BME280;64615;32.062;34.834;2023-02-28T14:04:55;101111.28;;;23.51;28.20
75938;BME280;64615;32.062;34.834;2023-02-28T14:07:53;101110.84;;;23.59;28.26
75938;BME280;64615;32.062;34.834;2023-02-28T14:10:48;101113.06;;;23.62;28.85
75938;BME280;64615;32.062;34.834;2023-02-28T14:13:45;101107.97;;;23.71;27.10
75938;BME280;64615;32.062;34.834;2023-02-28T16:18:10;101102.41;;;23.12;27.67
75938;BME280;64615;32.062;34.834;2023-02-28T16:20:36;101099.09;;;23.10;27.59
75938;BME280;64615;32.062;34.834;2023-02-28T16:23:02;101104.53;;;23.10;27.29
75938;BME280;64615;32.062;34.834;2023-02-28T16:25:54;101096.00;;;23.02;27.68
75938;BME280;64615;32.062;34.834;2023-02-28T16:28:29;101098.78;;;23.07;27.01
75938;BME280;64615;32.062;34.834;2023-02-28T16:30:59;101098.28;;;23.10;29.61
75938;BME280;64615;32.062;34.834;2023-02-28T16:33:25;101096.44;;;23.15;29.67
75938;BME280;64615;32.062;34.834;2023-02-28T16:35:50;101102.63;;;23.11;28.92
75938;BME280;64615;32.062;34.834;2023-02-28T16:38:16;101106.94;;;23.07;29.30
75938;BME280;64615;32.062;34.834;2023-02-28T16:40:42;101114.56;;;23.10;31.17
75938;BME280;64615;32.062;34.834;2023-02-28T16:43:15;101107.75;;;23.07;29.99
75938;BME280;64615;32.062;34.834;2023-02-28T16:45:42;101110.47;;;23.07;31.73
75938;BME280;64615;32.062;34.834;2023-02-28T16:48:13;101116.97;;;23.06;30.97
75938;BME280;64615;32.062;34.834;2023-02-28T16:50:39;101122.16;;;23.08;30.82
75938;BME280;64615;32.062;34.834;2023-02-28T16:53:05;101123.53;;;23.10;30.59
75938;BME280;64615;32.062;34.834;2023-02-28T16:55:31;101125.13;;;23.06;32.04
75938;BME280;64615;32.062;34.834;2023-02-28T16:57:58;101129.97;;;23.04;33.32
75938;BME280;64615;32.062;34.834;2023-02-28T17:00:26;101121.81;;;23.04;33.75
75938;BME280;64615;32.062;34.834;2023-02-28T17:02:52;101125.38;;;23.05;34.64
75938;BME280;64615;32.062;34.834;2023-02-28T17:05:18;101126.19;;;23.05;35.06
75938;BME280;64615;32.062;34.834;2023-02-28T17:07:45;101123.47;;;23.05;35.35
75938;BME280;64615;32.062;34.834;2023-02-28T17:10:14;101125.38;;;23.05;35.64
75938;BME280;64615;32.062;34.834;2023-02-28T17:12:40;101125.59;;;23.03;36.06
75938;BME280;64615;32.062;34.834;2023-02-28T17:15:07;101126.44;;;23.04;36.21
75938;BME280;64615;32.062;34.834;2023-02-28T17:17:33;101121.81;;;23.04;35.75
